Time;durP1;ratioP1;P1;durP2;ratioP2;P2;SDS_P1;SDS_P2;PMS_P1;PMS_P2;Temp;Humidity;BMP_temperature;BMP_pressure;BME280_temperature;BME280_humidity;BME280_pressure;Samples;Min_cycle;Max_cycle;Signal;HPM_P1;HPM_P2
2022/12/01 00:00:40;;;;;;;93.63;32.30;;;;;;;;;;5070457;28;20053;-71
2022/12/01 00:03:06;;;;;;;95.70;32.17;;;;;;;;;;5070770;28;20051;-71
2022/12/01 00:05:32;;;;;;;91.32;31.55;;;;;;;;;;5070265;28;20115;-71
2022/12/01 00:07:58;;;;;;;95.20;32.30;;;;;;;;;;5064956;28;20041;-71
2022/12/01 00:10:25;;;;;;;89.90;31.83;;;;;;;;;;5062184;28;20093;-72
2022/12/01 00:12:52;;;;;;;99.50;34.00;;;;;;;;;;5070613;28;20044;-71
2022/12/01 00:15:18;;;;;;;95.75;31.63;;;;;;;;;;5070358;28;20032;-72
2022/12/01 00:17:44;;;;;;;103.68;33.22;;;;;;;;;;5053864;28;20095;-72
2022/12/01 00:20:11;;;;;;;107.93;32.28;;;;;;;;;;5053966;28;20053;-71
2022/12/01 00:22:37;;;;;;;100.57;32.88;;;;;;;;;;5070497;28;20397;-71
2022/12/01 00:25:04;;;;;;;91.93;31.02;;;;;;;;;;5070933;28;20045;-71
2022/12/01 00:27:30;;;;;;;102.43;33.22;;;;;;;;;;5070077;28;20148;-71
2022/12/01 00:29:56;;;;;;;96.65;32.58;;;;;;;;;;5070429;28;20036;-71
2022/12/01 00:32:22;;;;;;;100.72;32.45;;;;;;;;;;5053649;28;20044;-72
2022/12/01 00:34:48;;;;;;;104.78;32.28;;;;;;;;;;5058299;28;20494;-71
2022/12/01 00:37:14;;;;;;;102.60;32.13;;;;;;;;;;5054016;28;20052;-71
2022/12/01 00:39:40;;;;;;;113.03;33.55;;;;;;;;;;5071311;28;20045;-72
2022/12/01 00:42:06;;;;;;;105.55;34.47;;;;;;;;;;5071926;28;20438;-71
2022/12/01 00:44:32;;;;;;;101.00;31.70;;;;;;;;;;5071765;28;20040;-71
2022/12/01 00:46:58;;;;;;;100.57;32.42;;;;;;;;;;5071831;28;20040;-71
2022/12/01 00:49:24;;;;;;;109.00;33.63;;;;;;;;;;5069974;28;20509;-71
2022/12/01 00:51:50;;;;;;;100.85;32.35;;;;;;;;;;5070027;28;20049;-71
2022/12/01 00:54:16;;;;;;;104.28;32.42;;;;;;;;;;5053876;28;20041;-71
2022/12/01 00:56:43;;;;;;;107.70;33.47;;;;;;;;;;5053064;28;20111;-72
2022/12/01 00:59:09;;;;;;;103.60;33.55;;;;;;;;;;5070273;28;20043;-71
2022/12/01 01:01:35;;;;;;;102.95;32.20;;;;;;;;;;5070153;28;20512;-71
2022/12/01 01:04:01;;;;;;;99.55;32.63;;;;;;;;;;5053546;28;20181;-71
2022/12/01 01:06:27;;;;;;;113.40;33.50;;;;;;;;;;5069795;28;20036;-71
2022/12/01 01:08:53;;;;;;;117.80;34.88;;;;;;;;;;5053394;28;20045;-71
2022/12/01 01:11:19;;;;;;;110.55;34.50;;;;;;;;;;5072612;28;20039;-71
2022/12/01 01:13:45;;;;;;;118.00;34.70;;;;;;;;;;5074553;28;20036;-71
2022/12/01 01:16:15;;;;;;;98.70;31.98;;;;;;;;;;5074015;28;20535;-71
2022/12/01 01:18:42;;;;;;;91.63;31.13;;;;;;;;;;5073267;28;20068;-71
2022/12/01 01:21:10;;;;;;;91.47;31.83;;;;;;;;;;5073486;28;20044;-72
2022/12/01 01:23:36;;;;;;;110.53;33.55;;;;;;;;;;5073277;28;20043;-72
2022/12/01 01:26:03;;;;;;;110.25;34.00;;;;;;;;;;5073354;28;20044;-71
2022/12/01 01:28:30;;;;;;;104.85;32.22;;;;;;;;;;5073270;28;20040;-71
2022/12/01 01:30:56;;;;;;;117.13;34.40;;;;;;;;;;5073821;28;20037;-71
2022/12/01 01:33:22;;;;;;;117.30;35.38;;;;;;;;;;5069201;28;20036;-71
2022/12/01 01:35:48;;;;;;;95.68;31.83;;;;;;;;;;5064051;28;20068;-72
2022/12/01 01:38:14;;;;;;;107.95;32.47;;;;;;;;;;5056739;28;20070;-72
2022/12/01 01:40:44;;;;;;;106.70;33.30;;;;;;;;;;5074067;28;20044;-71
2022/12/01 01:43:14;;;;;;;106.97;33.25;;;;;;;;;;5071520;28;20094;-71
2022/12/01 01:45:41;;;;;;;110.72;33.90;;;;;;;;;;5061163;28;20052;-72
2022/12/01 01:48:07;;;;;;;107.35;32.85;;;;;;;;;;5055868;28;20049;-72
2022/12/01 01:50:33;;;;;;;105.18;32.83;;;;;;;;;;5072802;28;20056;-71
2022/12/01 01:53:06;;;;;;;117.63;33.70;;;;;;;;;;5074116;28;20045;-71
2022/12/01 01:55:33;;;;;;;108.95;33.15;;;;;;;;;;5072529;28;20033;-72
2022/12/01 01:57:59;;;;;;;99.47;31.50;;;;;;;;;;5074092;28;20040;-71
2022/12/01 02:00:25;;;;;;;99.63;32.15;;;;;;;;;;5073243;28;20378;-71
2022/12/01 02:02:52;;;;;;;97.55;31.42;;;;;;;;;;5072628;28;20036;-71
2022/12/01 02:05:26;;;;;;;93.63;30.70;;;;;;;;;;5074293;28;20044;-71
2022/12/01 02:07:54;;;;;;;110.00;32.13;;;;;;;;;;5072202;28;20043;-72
2022/12/01 02:10:21;;;;;;;95.80;31.63;;;;;;;;;;5072818;28;20048;-71
2022/12/01 02:12:47;;;;;;;110.72;32.30;;;;;;;;;;5041542;28;20036;-71
2022/12/01 02:15:22;;;;;;;99.22;31.73;;;;;;;;;;5072870;28;20393;-71
2022/12/01 02:18:00;;;;;;;88.00;29.97;;;;;;;;;;5088860;28;20047;-71
2022/12/01 02:20:45;;;;;;;105.57;31.60;;;;;;;;;;5072903;28;20283;-71
2022/12/01 02:23:18;;;;;;;83.43;28.42;;;;;;;;;;5072147;28;20119;-71
2022/12/01 02:25:56;;;;;;;91.07;29.85;;;;;;;;;;5071887;28;20049;-71
2022/12/01 02:28:25;;;;;;;101.18;31.50;;;;;;;;;;5072380;28;20389;-72
2022/12/01 02:30:51;;;;;;;95.78;30.52;;;;;;;;;;5072284;28;20489;-71
2022/12/01 02:33:19;;;;;;;92.93;30.38;;;;;;;;;;5068764;28;20108;-71
2022/12/01 02:35:49;;;;;;;93.15;30.75;;;;;;;;;;5045812;28;20047;-71
2022/12/01 02:38:29;;;;;;;89.60;30.20;;;;;;;;;;5055001;28;20048;-71
2022/12/01 02:41:09;;;;;;;106.60;31.38;;;;;;;;;;5071889;28;20044;-71
2022/12/01 02:43:50;;;;;;;100.85;32.03;;;;;;;;;;5054621;28;20052;-72
2022/12/01 02:46:21;;;;;;;98.68;30.77;;;;;;;;;;5071976;28;20040;-71
2022/12/01 02:48:48;;;;;;;105.25;32.58;;;;;;;;;;5070999;28;20057;-71
2022/12/01 02:51:27;;;;;;;97.95;31.10;;;;;;;;;;5055430;28;20120;-71
2022/12/01 02:53:54;;;;;;;104.35;32.25;;;;;;;;;;5071053;28;20044;-71
2022/12/01 02:56:22;;;;;;;110.30;32.65;;;;;;;;;;5071942;28;20493;-71
2022/12/01 02:58:48;;;;;;;87.43;28.33;;;;;;;;;;5071394;28;20567;-71
2022/12/01 03:01:20;;;;;;;103.30;31.42;;;;;;;;;;5055843;28;20124;-71
2022/12/01 03:03:46;;;;;;;104.78;33.03;;;;;;;;;;5044180;28;20114;-71
2022/12/01 03:06:16;;;;;;;114.82;32.75;;;;;;;;;;5051242;28;20076;-71
2022/12/01 03:08:57;;;;;;;107.28;34.10;;;;;;;;;;5051137;28;20496;-71
2022/12/01 03:11:34;;;;;;;103.60;31.55;;;;;;;;;;5051413;28;20116;-71
2022/12/01 03:14:16;;;;;;;107.70;32.22;;;;;;;;;;5051444;28;20828;-71
2022/12/01 03:16:52;;;;;;;103.28;33.80;;;;;;;;;;5051509;28;20032;-71
2022/12/01 03:19:18;;;;;;;102.97;31.33;;;;;;;;;;5051330;28;20045;-71
2022/12/01 03:21:54;;;;;;;100.95;31.98;;;;;;;;;;5051020;28;20130;-71
2022/12/01 03:24:22;;;;;;;103.90;32.42;;;;;;;;;;5050928;28;20044;-71
2022/12/01 03:26:52;;;;;;;91.20;29.90;;;;;;;;;;5052264;28;20048;-71
2022/12/01 03:29:21;;;;;;;113.75;33.58;;;;;;;;;;5052894;28;20122;-71
2022/12/01 03:31:50;;;;;;;93.88;32.03;;;;;;;;;;5052274;28;20455;-71
2022/12/01 03:34:22;;;;;;;91.78;30.50;;;;;;;;;;5052014;28;20102;-71
2022/12/01 03:36:57;;;;;;;98.95;31.35;;;;;;;;;;5052238;28;20072;-71
2022/12/01 03:39:26;;;;;;;96.97;30.48;;;;;;;;;;5051068;28;20122;-71
2022/12/01 03:42:01;;;;;;;112.80;33.83;;;;;;;;;;5051998;28;20121;-71
2022/12/01 03:44:32;;;;;;;97.32;30.77;;;;;;;;;;5052254;28;20037;-71
2022/12/01 03:47:09;;;;;;;98.38;29.98;;;;;;;;;;5050546;28;20098;-71
2022/12/01 03:49:36;;;;;;;110.55;32.90;;;;;;;;;;5045166;28;20498;-71
2022/12/01 03:52:08;;;;;;;93.05;29.63;;;;;;;;;;5050453;28;20065;-71
2022/12/01 03:54:51;;;;;;;87.20;29.17;;;;;;;;;;5034148;28;20049;-71
2022/12/01 03:57:20;;;;;;;84.88;28.83;;;;;;;;;;5034173;28;20037;-71
2022/12/01 03:59:47;;;;;;;96.07;30.33;;;;;;;;;;5033960;28;20132;-71
2022/12/01 04:02:13;;;;;;;99.07;31.70;;;;;;;;;;5050835;28;20076;-71
2022/12/01 04:04:39;;;;;;;102.63;32.70;;;;;;;;;;5050821;28;20049;-71
2022/12/01 04:07:05;;;;;;;89.57;30.38;;;;;;;;;;5050193;28;20033;-71
2022/12/01 04:09:31;;;;;;;102.53;33.08;;;;;;;;;;5051045;28;20501;-71
2022/12/01 04:14:41;;;;;;;94.70;30.05;;;;;;;;;;5036683;28;20045;-71
2022/12/01 04:17:07;;;;;;;106.68;33.75;;;;;;;;;;5033833;28;20037;-71
2022/12/01 04:19:33;;;;;;;111.72;32.50;;;;;;;;;;5051933;28;20047;-71
2022/12/01 04:21:59;;;;;;;89.82;29.88;;;;;;;;;;5050098;28;20079;-71
2022/12/01 04:24:25;;;;;;;101.90;30.92;;;;;;;;;;5050535;28;20033;-71
2022/12/01 04:26:51;;;;;;;90.40;29.95;;;;;;;;;;5049948;28;20037;-71
2022/12/01 04:29:18;;;;;;;85.40;29.63;;;;;;;;;;5050718;28;20535;-71
2022/12/01 04:31:44;;;;;;;95.03;30.58;;;;;;;;;;5084014;28;20037;-71
2022/12/01 04:34:10;;;;;;;93.13;30.20;;;;;;;;;;5033785;28;20079;-71
2022/12/01 04:36:36;;;;;;;100.18;30.75;;;;;;;;;;5050432;28;20037;-71
2022/12/01 04:39:02;;;;;;;80.63;29.40;;;;;;;;;;5051568;28;20041;-71
2022/12/01 04:41:29;;;;;;;93.78;29.55;;;;;;;;;;5050253;28;20048;-71
2022/12/01 04:43:55;;;;;;;92.70;30.92;;;;;;;;;;5033429;28;20131;-71
2022/12/01 04:46:21;;;;;;;96.35;30.55;;;;;;;;;;5051925;28;20127;-71
2022/12/01 04:48:47;;;;;;;89.50;30.75;;;;;;;;;;5053621;28;20490;-72
2022/12/01 04:51:13;;;;;;;97.35;30.63;;;;;;;;;;5055398;28;20040;-71
2022/12/01 04:53:39;;;;;;;97.65;29.95;;;;;;;;;;5054175;28;20037;-71
2022/12/01 04:56:06;;;;;;;96.07;29.95;;;;;;;;;;5053376;28;20076;-71
2022/12/01 04:58:32;;;;;;;93.90;30.77;;;;;;;;;;5055347;28;20041;-71
2022/12/01 05:01:06;;;;;;;107.13;32.05;;;;;;;;;;5050987;28;20048;-71
2022/12/01 05:03:35;;;;;;;123.82;33.55;;;;;;;;;;5045515;28;20444;-71
2022/12/01 05:06:06;;;;;;;115.13;33.20;;;;;;;;;;5052852;28;20550;-71
2022/12/01 05:08:33;;;;;;;106.63;32.00;;;;;;;;;;5053647;28;20045;-71
2022/12/01 05:10:59;;;;;;;107.05;31.85;;;;;;;;;;5054717;28;20413;-71
2022/12/01 05:13:25;;;;;;;129.98;34.67;;;;;;;;;;5053802;28;20060;-71
2022/12/01 05:15:51;;;;;;;113.35;33.53;;;;;;;;;;5053270;28;20068;-71
2022/12/01 05:18:17;;;;;;;115.20;33.03;;;;;;;;;;5037138;28;20045;-71
2022/12/01 05:20:55;;;;;;;116.15;32.45;;;;;;;;;;5036946;28;20048;-71
2022/12/01 05:23:22;;;;;;;119.07;34.45;;;;;;;;;;5036961;28;20128;-71
2022/12/01 05:25:48;;;;;;;114.82;33.63;;;;;;;;;;5053409;28;20045;-71
2022/12/01 05:28:14;;;;;;;118.85;33.88;;;;;;;;;;5036506;28;20041;-71
2022/12/01 05:30:40;;;;;;;113.80;33.97;;;;;;;;;;5053464;28;20181;-71
2022/12/01 05:33:06;;;;;;;108.35;32.10;;;;;;;;;;5052953;28;20040;-71
2022/12/01 05:35:33;;;;;;;89.68;30.25;;;;;;;;;;5053201;28;20037;-71
2022/12/01 05:37:59;;;;;;;109.72;32.97;;;;;;;;;;5036343;28;20062;-71
2022/12/01 05:40:25;;;;;;;108.57;33.90;;;;;;;;;;5053234;28;20037;-71
2022/12/01 05:42:51;;;;;;;120.63;33.88;;;;;;;;;;5052934;28;20045;-71
2022/12/01 05:45:17;;;;;;;123.30;34.13;;;;;;;;;;5052852;28;20041;-71
2022/12/01 05:47:43;;;;;;;114.28;34.22;;;;;;;;;;5043138;28;20551;-71
2022/12/01 05:50:09;;;;;;;106.97;33.53;;;;;;;;;;5052609;28;20498;-71
2022/12/01 05:52:36;;;;;;;113.18;33.67;;;;;;;;;;5053165;28;20045;-71
2022/12/01 05:55:03;;;;;;;128.23;35.50;;;;;;;;;;5053870;28;20179;-71
2022/12/01 05:57:31;;;;;;;119.18;34.92;;;;;;;;;;5048674;28;20055;-70
2022/12/01 05:59:57;;;;;;;113.60;33.22;;;;;;;;;;5053743;28;20041;-71
2022/12/01 06:02:25;;;;;;;123.07;35.45;;;;;;;;;;5054420;28;20481;-71
2022/12/01 06:04:52;;;;;;;103.90;32.03;;;;;;;;;;5052794;28;20041;-71
2022/12/01 06:07:18;;;;;;;116.20;33.50;;;;;;;;;;5053719;28;20142;-71
2022/12/01 06:09:45;;;;;;;126.25;35.13;;;;;;;;;;5036285;28;20033;-71
2022/12/01 06:12:11;;;;;;;125.93;34.92;;;;;;;;;;5052038;28;20049;-71
2022/12/01 06:14:37;;;;;;;124.15;35.10;;;;;;;;;;5053020;28;20041;-71
2022/12/01 06:17:03;;;;;;;116.20;34.85;;;;;;;;;;5053371;28;20069;-71
2022/12/01 06:19:30;;;;;;;129.60;34.97;;;;;;;;;;5042446;28;20049;-71
2022/12/01 06:21:56;;;;;;;134.32;35.65;;;;;;;;;;5050419;28;20478;-71
2022/12/01 06:24:23;;;;;;;121.22;35.58;;;;;;;;;;5053913;28;20394;-71
2022/12/01 06:26:49;;;;;;;124.38;35.47;;;;;;;;;;5052034;28;20045;-71
2022/12/01 06:29:15;;;;;;;127.40;35.72;;;;;;;;;;5051708;28;20542;-71
2022/12/01 06:31:41;;;;;;;123.25;35.47;;;;;;;;;;5052193;28;20040;-71
2022/12/01 06:34:07;;;;;;;117.80;34.88;;;;;;;;;;5053097;28;20557;-71
2022/12/01 06:36:33;;;;;;;120.57;33.95;;;;;;;;;;5053560;28;20478;-72
2022/12/01 06:38:59;;;;;;;126.53;35.00;;;;;;;;;;5035145;28;20455;-72
2022/12/01 06:41:25;;;;;;;128.85;37.55;;;;;;;;;;5052073;28;20040;-71
2022/12/01 06:43:51;;;;;;;123.63;36.35;;;;;;;;;;5051779;28;20036;-71
2022/12/01 06:46:18;;;;;;;116.43;35.17;;;;;;;;;;5051702;28;20048;-71
2022/12/01 06:48:47;;;;;;;113.28;34.42;;;;;;;;;;5051625;28;20052;-72
2022/12/01 06:51:13;;;;;;;123.78;35.05;;;;;;;;;;5052980;28;20114;-72
2022/12/01 06:53:39;;;;;;;119.28;36.13;;;;;;;;;;5051830;28;20072;-72
2022/12/01 06:56:05;;;;;;;119.82;36.05;;;;;;;;;;5051264;28;20037;-72
2022/12/01 06:58:31;;;;;;;127.13;36.97;;;;;;;;;;5051492;28;20044;-72
2022/12/01 07:00:58;;;;;;;115.35;34.20;;;;;;;;;;5051701;28;20044;-72
2022/12/01 07:03:24;;;;;;;116.28;33.95;;;;;;;;;;5051095;28;20033;-72
2022/12/01 07:05:57;;;;;;;114.15;33.35;;;;;;;;;;5051652;28;20176;-71
2022/12/01 07:08:23;;;;;;;113.50;33.72;;;;;;;;;;5050194;28;20048;-72
2022/12/01 07:10:56;;;;;;;120.63;35.10;;;;;;;;;;5034923;28;20049;-72
2022/12/01 07:13:23;;;;;;;110.18;34.38;;;;;;;;;;5050888;28;20095;-72
2022/12/01 07:15:49;;;;;;;109.07;34.75;;;;;;;;;;5051447;28;20063;-72
2022/12/01 07:18:15;;;;;;;131.02;35.50;;;;;;;;;;5052178;28;20063;-71
2022/12/01 07:20:41;;;;;;;116.72;35.03;;;;;;;;;;5051626;28;20083;-71
2022/12/01 07:23:07;;;;;;;107.47;33.70;;;;;;;;;;5050938;28;20044;-71
2022/12/01 07:25:33;;;;;;;112.70;34.38;;;;;;;;;;5052591;28;20045;-71
2022/12/01 07:27:59;;;;;;;133.57;36.90;;;;;;;;;;5051025;28;20052;-71
2022/12/01 07:30:25;;;;;;;115.55;33.60;;;;;;;;;;5050693;28;20052;-71
2022/12/01 07:32:51;;;;;;;118.35;33.67;;;;;;;;;;5051348;28;20401;-71
2022/12/01 07:35:17;;;;;;;124.93;35.65;;;;;;;;;;5051198;28;20471;-71
2022/12/01 07:37:43;;;;;;;116.80;33.92;;;;;;;;;;5051571;28;20064;-71
2022/12/01 07:40:09;;;;;;;118.05;34.72;;;;;;;;;;5050699;28;20076;-71
2022/12/01 07:42:35;;;;;;;104.80;32.80;;;;;;;;;;5051068;28;20043;-71
2022/12/01 07:45:01;;;;;;;119.20;33.67;;;;;;;;;;5051098;28;20136;-71
2022/12/01 07:47:27;;;;;;;124.18;34.97;;;;;;;;;;5050576;28;20041;-71
2022/12/01 07:49:54;;;;;;;125.40;34.35;;;;;;;;;;5050740;28;20148;-71
2022/12/01 07:52:20;;;;;;;118.80;33.17;;;;;;;;;;5070763;28;20068;-72
2022/12/01 07:54:46;;;;;;;106.65;31.80;;;;;;;;;;5070829;28;20047;-71
2022/12/01 07:57:13;;;;;;;125.53;33.03;;;;;;;;;;5060468;28;20041;-71
2022/12/01 07:59:39;;;;;;;127.53;32.90;;;;;;;;;;5050796;28;20529;-71
2022/12/01 08:02:06;;;;;;;312.27;32.13;;;;;;;;;;5050908;28;20124;-71
2022/12/01 08:04:32;;;;;;;199.75;27.80;;;;;;;;;;5054880;28;20075;-71
2022/12/01 08:06:58;;;;;;;73.70;24.67;;;;;;;;;;5071204;28;20086;-71
2022/12/01 08:09:24;;;;;;;95.10;28.20;;;;;;;;;;5070242;28;20040;-71
2022/12/01 08:11:50;;;;;;;102.50;31.08;;;;;;;;;;5070811;28;20091;-71
2022/12/01 08:14:16;;;;;;;72.35;24.52;;;;;;;;;;5053514;28;20032;-71
2022/12/01 08:16:42;;;;;;;112.15;31.83;;;;;;;;;;5070526;28;20036;-71
2022/12/01 08:19:11;;;;;;;83.18;28.85;;;;;;;;;;5070651;28;20044;-71
2022/12/01 08:21:37;;;;;;;168.93;31.27;;;;;;;;;;5074606;28;20130;-71
2022/12/01 08:24:04;;;;;;;567.55;36.53;;;;;;;;;;5076102;28;20062;-71
2022/12/01 08:26:30;;;;;;;655.03;46.75;;;;;;;;;;5074501;28;20029;-71
2022/12/01 08:28:56;;;;;;;599.83;43.78;;;;;;;;;;5108467;28;20044;-71
2022/12/01 08:31:24;;;;;;;313.88;31.23;;;;;;;;;;5074063;28;20063;-72
2022/12/01 08:33:51;;;;;;;420.00;34.95;;;;;;;;;;5050241;28;20036;-71
2022/12/01 08:36:17;;;;;;;364.65;33.15;;;;;;;;;;5072546;28;20039;-71
2022/12/01 08:38:44;;;;;;;484.90;36.33;;;;;;;;;;5074434;28;20041;-71
2022/12/01 08:41:10;;;;;;;511.05;37.85;;;;;;;;;;5074332;28;20092;-71
2022/12/01 08:43:41;;;;;;;628.38;41.55;;;;;;;;;;5074073;28;20036;-71
2022/12/01 08:46:07;;;;;;;477.17;35.83;;;;;;;;;;5074572;28;20056;-71
2022/12/01 08:48:34;;;;;;;364.27;32.30;;;;;;;;;;5073774;28;20055;-71
2022/12/01 08:51:10;;;;;;;349.50;31.05;;;;;;;;;;5057605;28;20174;-71
2022/12/01 08:53:37;;;;;;;675.33;42.92;;;;;;;;;;5107766;28;20040;-71
2022/12/01 08:56:05;;;;;;;281.77;29.95;;;;;;;;;;5073478;28;20040;-71
2022/12/01 08:58:31;;;;;;;308.13;32.15;;;;;;;;;;5053586;28;20048;-72
2022/12/01 09:01:01;;;;;;;294.75;32.22;;;;;;;;;;5053817;28;20045;-71
2022/12/01 09:03:27;;;;;;;404.02;36.65;;;;;;;;;;5053528;28;20052;-71
2022/12/01 09:05:53;;;;;;;276.45;37.28;;;;;;;;;;5055104;28;20037;-71
2022/12/01 09:08:31;;;;;;;160.88;34.03;;;;;;;;;;5053620;28;20478;-72
2022/12/01 09:10:58;;;;;;;317.58;38.13;;;;;;;;;;5054232;28;20098;-71
2022/12/01 09:13:24;;;;;;;398.95;32.40;;;;;;;;;;5057266;28;20044;-72
2022/12/01 09:16:20;;;;;;;284.27;29.95;;;;;;;;;;5073913;28;20102;-72
2022/12/01 09:18:46;;;;;;;282.75;30.10;;;;;;;;;;5060873;28;20044;-72
2022/12/01 09:21:17;;;;;;;322.42;31.38;;;;;;;;;;5073674;28;20044;-72
2022/12/01 09:23:43;;;;;;;136.15;25.63;;;;;;;;;;5073943;28;20485;-72
2022/12/01 09:26:10;;;;;;;226.82;27.20;;;;;;;;;;5073340;28;20048;-72
2022/12/01 09:28:39;;;;;;;355.30;30.08;;;;;;;;;;5040413;28;20120;-73
2022/12/01 09:31:07;;;;;;;253.43;30.42;;;;;;;;;;5073477;28;20045;-71
2022/12/01 09:33:33;;;;;;;139.77;27.27;;;;;;;;;;5050393;28;20120;-71
2022/12/01 09:35:59;;;;;;;87.53;24.63;;;;;;;;;;5072911;28;20081;-71
2022/12/01 09:38:26;;;;;;;118.82;27.20;;;;;;;;;;5072824;28;20044;-71
2022/12/01 09:40:52;;;;;;;100.05;24.02;;;;;;;;;;5073058;28;20051;-72
2022/12/01 09:43:20;;;;;;;90.00;22.55;;;;;;;;;;5056643;28;20044;-72
2022/12/01 09:45:50;;;;;;;46.65;21.88;;;;;;;;;;5073082;28;20178;-72
2022/12/01 09:48:25;;;;;;;42.20;20.23;;;;;;;;;;5072757;28;20044;-72
2022/12/01 09:50:51;;;;;;;39.83;21.65;;;;;;;;;;5073849;28;20053;-71
2022/12/01 09:53:19;;;;;;;39.30;21.23;;;;;;;;;;5073395;28;20079;-72
2022/12/01 09:55:46;;;;;;;38.05;21.55;;;;;;;;;;5056174;28;20041;-72
2022/12/01 09:58:20;;;;;;;34.70;20.67;;;;;;;;;;5050755;28;20459;-72
2022/12/01 10:00:48;;;;;;;32.38;19.25;;;;;;;;;;5044623;28;20041;-72
2022/12/01 10:03:20;;;;;;;34.05;20.38;;;;;;;;;;5052601;28;20091;-72
2022/12/01 10:06:25;;;;;;;31.77;18.88;;;;;;;;;;5052343;28;20116;-72
2022/12/01 10:09:09;;;;;;;29.67;18.20;;;;;;;;;;4999566;28;20052;-73
2022/12/01 10:11:39;;;;;;;31.40;18.33;;;;;;;;;;5072109;28;20041;-73
2022/12/01 10:14:08;;;;;;;28.33;17.80;;;;;;;;;;5072832;28;20489;-72
2022/12/01 10:16:37;;;;;;;27.83;17.30;;;;;;;;;;5072066;28;20048;-73
2022/12/01 10:19:08;;;;;;;26.38;17.77;;;;;;;;;;5072367;28;20037;-73
2022/12/01 10:21:49;;;;;;;25.63;16.00;;;;;;;;;;5071950;28;20040;-73
2022/12/01 10:24:15;;;;;;;24.27;16.40;;;;;;;;;;5080074;28;20041;-73
2022/12/01 10:26:48;;;;;;;23.33;16.05;;;;;;;;;;5072019;28;20043;-73
2022/12/01 10:29:20;;;;;;;25.42;16.25;;;;;;;;;;5072264;28;20117;-73
2022/12/01 10:31:54;;;;;;;24.35;16.17;;;;;;;;;;5072276;28;20072;-73
2022/12/01 10:34:25;;;;;;;23.40;15.77;;;;;;;;;;5060565;28;20041;-73
2022/12/01 10:36:51;;;;;;;22.55;15.18;;;;;;;;;;5064830;28;20093;-73
2022/12/01 10:39:37;;;;;;;23.10;15.45;;;;;;;;;;5072093;28;20114;-73
2022/12/01 10:42:06;;;;;;;22.10;16.00;;;;;;;;;;5072092;28;20094;-73
2022/12/01 10:44:32;;;;;;;24.50;16.45;;;;;;;;;;5071874;28;20544;-73
2022/12/01 10:46:59;;;;;;;23.35;15.63;;;;;;;;;;5072260;28;20044;-73
2022/12/01 10:49:40;;;;;;;22.98;16.25;;;;;;;;;;5054788;28;20105;-73
2022/12/01 10:52:07;;;;;;;21.75;14.93;;;;;;;;;;5071985;28;20048;-73
2022/12/01 10:54:38;;;;;;;23.02;15.95;;;;;;;;;;5071258;28;20040;-73
2022/12/01 10:57:05;;;;;;;22.65;15.88;;;;;;;;;;5062861;28;20071;-73
2022/12/01 10:59:52;;;;;;;25.52;16.35;;;;;;;;;;5051263;28;20094;-73
2022/12/01 11:02:22;;;;;;;25.25;16.17;;;;;;;;;;5051861;28;20049;-72
2022/12/01 11:04:54;;;;;;;24.25;16.83;;;;;;;;;;5051153;28;20390;-72
2022/12/01 11:07:25;;;;;;;26.85;17.00;;;;;;;;;;5034927;28;20049;-72
2022/12/01 11:09:59;;;;;;;24.38;15.70;;;;;;;;;;5052427;28;20099;-72
2022/12/01 11:12:25;;;;;;;31.52;18.33;;;;;;;;;;5051584;28;20037;-72
2022/12/01 11:14:52;;;;;;;27.80;16.65;;;;;;;;;;5051277;28;20051;-72
2022/12/01 11:17:21;;;;;;;26.25;17.00;;;;;;;;;;5051445;28;20041;-72
2022/12/01 11:19:48;;;;;;;23.30;15.43;;;;;;;;;;5051093;28;20041;-72
2022/12/01 11:22:22;;;;;;;26.17;16.77;;;;;;;;;;5051338;28;20044;-72
2022/12/01 11:24:59;;;;;;;30.60;18.02;;;;;;;;;;5034783;28;20490;-72
2022/12/01 11:27:34;;;;;;;27.38;17.50;;;;;;;;;;5038187;28;20485;-72
2022/12/01 11:30:03;;;;;;;27.08;17.38;;;;;;;;;;5051680;28;20049;-72
2022/12/01 11:32:31;;;;;;;28.25;17.35;;;;;;;;;;5051734;28;20551;-72
2022/12/01 11:35:26;;;;;;;28.17;17.65;;;;;;;;;;5050723;28;20037;-72
2022/12/01 11:37:58;;;;;;;29.42;17.58;;;;;;;;;;5038188;28;20505;-72
2022/12/01 11:40:25;;;;;;;31.52;18.65;;;;;;;;;;5051063;28;20122;-71
2022/12/01 11:42:53;;;;;;;31.92;18.05;;;;;;;;;;5033991;28;20056;-72
2022/12/01 11:45:22;;;;;;;30.92;17.75;;;;;;;;;;5050924;28;20451;-72
2022/12/01 11:48:17;;;;;;;29.30;17.25;;;;;;;;;;5050599;28;20048;-71
2022/12/01 11:50:59;;;;;;;32.17;18.30;;;;;;;;;;5050186;28;20122;-71
2022/12/01 11:53:31;;;;;;;31.92;18.13;;;;;;;;;;5051008;28;20071;-72
2022/12/01 11:56:14;;;;;;;31.48;17.55;;;;;;;;;;5050222;28;20114;-72
2022/12/01 11:58:41;;;;;;;27.90;16.58;;;;;;;;;;5038863;28;20414;-72
2022/12/01 12:01:19;;;;;;;31.58;15.95;;;;;;;;;;5052361;28;20041;-71
2022/12/01 12:04:08;;;;;;;29.83;17.10;;;;;;;;;;5050417;28;20040;-72
2022/12/01 12:06:49;;;;;;;27.83;15.27;;;;;;;;;;5050359;28;20068;-72
2022/12/01 12:09:15;;;;;;;30.67;16.83;;;;;;;;;;5052253;28;20041;-72
2022/12/01 12:11:52;;;;;;;26.92;15.48;;;;;;;;;;5050119;28;20087;-72
2022/12/01 12:14:35;;;;;;;28.13;15.68;;;;;;;;;;5051037;28;20490;-71
2022/12/01 12:17:15;;;;;;;30.08;16.70;;;;;;;;;;5050240;28;20044;-72
2022/12/01 12:19:47;;;;;;;31.50;16.92;;;;;;;;;;5033710;28;20056;-72
2022/12/01 12:22:22;;;;;;;28.15;16.00;;;;;;;;;;5051813;28;20055;-72
2022/12/01 12:24:48;;;;;;;27.35;15.13;;;;;;;;;;5051679;28;20090;-71
2022/12/01 12:27:23;;;;;;;24.98;14.50;;;;;;;;;;5050394;28;20037;-71
2022/12/01 12:30:01;;;;;;;27.67;15.00;;;;;;;;;;5050681;28;20052;-71
2022/12/01 12:32:40;;;;;;;27.95;14.88;;;;;;;;;;5036896;28;20041;-71
2022/12/01 12:35:30;;;;;;;23.75;13.32;;;;;;;;;;5050719;28;20426;-71
2022/12/01 12:38:25;;;;;;;25.25;13.88;;;;;;;;;;5039520;28;20079;-71
2022/12/01 12:40:55;;;;;;;25.42;13.80;;;;;;;;;;5027284;28;20401;-71
2022/12/01 12:43:21;;;;;;;24.02;14.15;;;;;;;;;;5050382;28;20124;-71
2022/12/01 12:45:47;;;;;;;26.15;14.73;;;;;;;;;;5050249;28;20047;-72
2022/12/01 12:48:31;;;;;;;26.85;15.00;;;;;;;;;;5050282;28;20045;-71
2022/12/01 12:51:00;;;;;;;27.08;14.82;;;;;;;;;;5050830;28;20102;-71
2022/12/01 12:53:29;;;;;;;26.65;15.13;;;;;;;;;;5050311;28;20049;-71
2022/12/01 12:56:00;;;;;;;29.05;15.63;;;;;;;;;;5049852;28;20037;-71
2022/12/01 12:58:32;;;;;;;27.38;15.07;;;;;;;;;;5036554;28;20116;-71
2022/12/01 13:01:05;;;;;;;31.33;15.80;;;;;;;;;;5050068;28;20459;-71
2022/12/01 13:03:42;;;;;;;29.20;15.85;;;;;;;;;;5033632;28;20040;-71
2022/12/01 13:06:10;;;;;;;27.80;15.75;;;;;;;;;;5049807;28;20072;-71
2022/12/01 13:08:44;;;;;;;29.65;16.13;;;;;;;;;;5039319;28;20037;-71
2022/12/01 13:11:18;;;;;;;30.95;16.05;;;;;;;;;;5053767;28;20045;-71
2022/12/01 13:13:56;;;;;;;34.60;16.75;;;;;;;;;;5053640;28;20037;-71
2022/12/01 13:16:25;;;;;;;30.50;15.80;;;;;;;;;;5054993;28;20039;-71
2022/12/01 13:19:01;;;;;;;30.10;16.58;;;;;;;;;;5053158;28;20151;-71
2022/12/01 13:21:34;;;;;;;32.30;17.33;;;;;;;;;;5053467;28;20049;-72
2022/12/01 13:24:00;;;;;;;29.17;15.68;;;;;;;;;;5070086;28;20452;-72
2022/12/01 13:26:26;;;;;;;30.60;16.02;;;;;;;;;;5037131;28;20150;-72
2022/12/01 13:28:54;;;;;;;36.30;17.25;;;;;;;;;;5052869;28;20532;-72
2022/12/01 13:31:21;;;;;;;30.45;16.65;;;;;;;;;;5053699;28;20101;-72
2022/12/01 13:33:55;;;;;;;30.52;15.98;;;;;;;;;;5036724;28;20112;-72
2022/12/01 13:36:21;;;;;;;31.13;16.02;;;;;;;;;;5053948;28;20039;-72
2022/12/01 13:39:17;;;;;;;32.08;17.15;;;;;;;;;;5052851;28;20103;-72
2022/12/01 13:41:43;;;;;;;31.55;17.17;;;;;;;;;;5023933;28;20044;-72
2022/12/01 13:44:24;;;;;;;29.00;15.65;;;;;;;;;;5052703;28;20037;-72
2022/12/01 13:46:57;;;;;;;29.35;16.05;;;;;;;;;;5054116;28;20048;-72
2022/12/01 13:49:33;;;;;;;33.60;16.63;;;;;;;;;;5052805;28;20085;-72
2022/12/01 13:52:18;;;;;;;32.08;16.52;;;;;;;;;;5052675;28;20044;-72
2022/12/01 13:55:07;;;;;;;31.67;16.83;;;;;;;;;;5040575;28;20072;-72
2022/12/01 13:57:38;;;;;;;31.30;16.27;;;;;;;;;;5053961;28;20060;-72
2022/12/01 14:00:26;;;;;;;33.47;16.33;;;;;;;;;;5053720;28;20041;-72
2022/12/01 14:03:11;;;;;;;32.42;17.65;;;;;;;;;;5052499;28;20079;-72
2022/12/01 14:05:40;;;;;;;32.00;17.10;;;;;;;;;;5052862;28;20036;-71
2022/12/01 14:08:32;;;;;;;28.90;16.38;;;;;;;;;;5052459;28;20047;-71
2022/12/01 14:10:58;;;;;;;31.02;17.27;;;;;;;;;;5044872;28;20060;-72
2022/12/01 14:13:25;;;;;;;29.85;16.70;;;;;;;;;;5036084;28;20037;-71
2022/12/01 14:15:58;;;;;;;33.35;17.35;;;;;;;;;;5052576;28;20077;-72
2022/12/01 14:18:36;;;;;;;30.65;16.80;;;;;;;;;;5052447;28;20405;-72
2022/12/01 14:21:09;;;;;;;29.60;15.30;;;;;;;;;;5052262;28;20056;-72
2022/12/01 14:23:56;;;;;;;33.08;16.58;;;;;;;;;;5052549;28;20112;-71
2022/12/01 14:26:22;;;;;;;;;;;;;;;;;;5052712;28;20044;-72
2022/12/01 14:29:03;;;;;;;30.17;16.17;;;;;;;;;;5053230;28;19960;-72